sensor_id;sensor_type;location;lat;lon;timestamp;pressure;altitude;pressure_sealevel;temperature;humidity
50632;BME280;49583;45.590;-122.498;2024-02-16T00:01:29;101368.42;;;4.17;83.54
50632;BME280;49583;45.590;-122.498;2024-02-16T00:03:42;101389.45;;;4.19;83.56
50632;BME280;49583;45.590;-122.498;2024-02-16T00:05:55;101408.72;;;4.21;83.33
50632;BME280;49583;45.590;-122.498;2024-02-16T00:08:09;101419.37;;;4.20;82.96
50632;BME280;49583;45.590;-122.498;2024-02-16T00:10:23;101417.30;;;4.16;82.76
50632;BME280;49583;45.590;-122.498;2024-02-16T00:12:36;101407.66;;;4.11;82.90
50632;BME280;49583;45.590;-122.498;2024-02-16T00:14:50;101397.54;;;4.08;82.95
50632;BME280;49583;45.590;-122.498;2024-02-16T00:17:03;101396.64;;;4.06;83.06
50632;BME280;49583;45.590;-122.498;2024-02-16T00:19:17;101398.88;;;4.05;82.95
50632;BME280;49583;45.590;-122.498;2024-02-16T00:21:29;101408.60;;;4.04;83.38
50632;BME280;49583;45.590;-122.498;2024-02-16T00:23:42;101405.09;;;4.03;83.24
50632;BME280;49583;45.590;-122.498;2024-02-16T00:25:55;101399.23;;;4.01;83.30
50632;BME280;49583;45.590;-122.498;2024-02-16T00:28:08;101404.95;;;3.99;83.41
50632;BME280;49583;45.590;-122.498;2024-02-16T00:30:21;101401.90;;;3.96;83.42
50632;BME280;49583;45.590;-122.498;2024-02-16T00:32:34;101401.46;;;3.95;83.58
50632;BME280;49583;45.590;-122.498;2024-02-16T00:34:47;101399.66;;;3.92;83.87
50632;BME280;49583;45.590;-122.498;2024-02-16T00:37:02;101406.02;;;3.89;83.84
50632;BME280;49583;45.590;-122.498;2024-02-16T00:39:20;101416.30;;;3.87;83.87
50632;BME280;49583;45.590;-122.498;2024-02-16T00:41:32;101423.59;;;3.86;83.88
50632;BME280;49583;45.590;-122.498;2024-02-16T00:43:45;101418.52;;;3.86;83.91
50632;BME280;49583;45.590;-122.498;2024-02-16T00:45:58;101421.67;;;3.84;84.22
50632;BME280;49583;45.590;-122.498;2024-02-16T00:48:11;101424.73;;;3.83;84.17
50632;BME280;49583;45.590;-122.498;2024-02-16T00:50:24;101440.89;;;3.82;84.40
50632;BME280;49583;45.590;-122.498;2024-02-16T00:52:37;101449.98;;;3.82;84.30
50632;BME280;49583;45.590;-122.498;2024-02-16T00:55:01;101458.86;;;3.80;84.12
50632;BME280;49583;45.590;-122.498;2024-02-16T00:57:14;101461.86;;;3.78;83.96
50632;BME280;49583;45.590;-122.498;2024-02-16T00:59:42;101453.94;;;3.76;84.21
50632;BME280;49583;45.590;-122.498;2024-02-16T01:02:15;101443.77;;;3.75;84.47
50632;BME280;49583;45.590;-122.498;2024-02-16T01:04:32;101445.46;;;3.71;84.64
50632;BME280;49583;45.590;-122.498;2024-02-16T01:06:46;101449.05;;;3.66;84.42
50632;BME280;49583;45.590;-122.498;2024-02-16T01:08:59;101458.48;;;3.65;84.65
50632;BME280;49583;45.590;-122.498;2024-02-16T01:11:12;101461.48;;;3.64;84.61
50632;BME280;49583;45.590;-122.498;2024-02-16T01:13:27;101466.54;;;3.63;84.69
50632;BME280;49583;45.590;-122.498;2024-02-16T01:15:50;101463.80;;;3.62;84.93
50632;BME280;49583;45.590;-122.498;2024-02-16T01:18:03;101478.95;;;3.58;84.94
50632;BME280;49583;45.590;-122.498;2024-02-16T01:20:19;101488.60;;;3.55;84.97
50632;BME280;49583;45.590;-122.498;2024-02-16T01:22:42;101481.42;;;3.53;84.98
50632;BME280;49583;45.590;-122.498;2024-02-16T01:25:07;101462.84;;;3.49;85.33
50632;BME280;49583;45.590;-122.498;2024-02-16T01:27:30;101466.46;;;3.46;85.29
50632;BME280;49583;45.590;-122.498;2024-02-16T01:29:43;101468.27;;;3.44;85.22
50632;BME280;49583;45.590;-122.498;2024-02-16T01:31:59;101465.36;;;3.42;85.34
50632;BME280;49583;45.590;-122.498;2024-02-16T01:34:24;101469.95;;;3.40;85.32
50632;BME280;49583;45.590;-122.498;2024-02-16T01:36:57;101471.77;;;3.38;85.27
50632;BME280;49583;45.590;-122.498;2024-02-16T01:39:14;101474.77;;;3.36;85.32
50632;BME280;49583;45.590;-122.498;2024-02-16T01:41:40;101484.02;;;3.37;85.31
50632;BME280;49583;45.590;-122.498;2024-02-16T01:43:54;101484.27;;;3.38;85.38
50632;BME280;49583;45.590;-122.498;2024-02-16T01:46:11;101476.04;;;3.38;85.52
50632;BME280;49583;45.590;-122.498;2024-02-16T01:48:30;101464.99;;;3.38;85.31
50632;BME280;49583;45.590;-122.498;2024-02-16T01:51:03;101466.30;;;3.38;85.30
50632;BME280;49583;45.590;-122.498;2024-02-16T01:53:17;101469.34;;;3.37;85.29
50632;BME280;49583;45.590;-122.498;2024-02-16T01:55:30;101467.82;;;3.38;85.28
50632;BME280;49583;45.590;-122.498;2024-02-16T01:57:54;101467.21;;;3.39;85.13
50632;BME280;49583;45.590;-122.498;2024-02-16T02:00:08;101471.84;;;3.40;85.27
50632;BME280;49583;45.590;-122.498;2024-02-16T02:02:26;101477.90;;;3.41;85.10
50632;BME280;49583;45.590;-122.498;2024-02-16T02:04:39;101474.60;;;3.40;84.97
50632;BME280;49583;45.590;-122.498;2024-02-16T02:06:52;101473.48;;;3.42;84.90
50632;BME280;49583;45.590;-122.498;2024-02-16T02:09:08;101469.46;;;3.43;84.86
50632;BME280;49583;45.590;-122.498;2024-02-16T02:11:22;101466.11;;;3.44;85.00
50632;BME280;49583;45.590;-122.498;2024-02-16T02:13:44;101473.34;;;3.41;85.03
50632;BME280;49583;45.590;-122.498;2024-02-16T02:16:09;101486.38;;;3.42;84.89
50632;BME280;49583;45.590;-122.498;2024-02-16T02:18:37;101488.59;;;3.39;84.89
50632;BME280;49583;45.590;-122.498;2024-02-16T02:21:10;101486.79;;;3.37;84.77
50632;BME280;49583;45.590;-122.498;2024-02-16T02:23:27;101492.15;;;3.35;84.66
50632;BME280;49583;45.590;-122.498;2024-02-16T02:25:44;101496.64;;;3.32;84.72
50632;BME280;49583;45.590;-122.498;2024-02-16T02:27:58;101504.40;;;3.32;84.76
50632;BME280;49583;45.590;-122.498;2024-02-16T02:30:16;101504.52;;;3.31;84.72
50632;BME280;49583;45.590;-122.498;2024-02-16T02:32:29;101510.89;;;3.31;84.75
50632;BME280;49583;45.590;-122.498;2024-02-16T02:34:52;101516.89;;;3.32;84.89
50632;BME280;49583;45.590;-122.498;2024-02-16T02:37:05;101518.20;;;3.32;84.85
50632;BME280;49583;45.590;-122.498;2024-02-16T02:39:32;101503.52;;;3.33;84.86
50632;BME280;49583;45.590;-122.498;2024-02-16T02:42:05;101502.77;;;3.33;84.84
50632;BME280;49583;45.590;-122.498;2024-02-16T02:44:20;101500.94;;;3.32;84.76
50632;BME280;49583;45.590;-122.498;2024-02-16T02:46:36;101504.35;;;3.31;84.67
50632;BME280;49583;45.590;-122.498;2024-02-16T02:48:50;101507.88;;;3.30;84.81
50632;BME280;49583;45.590;-122.498;2024-02-16T02:51:23;101513.93;;;3.31;84.75
50632;BME280;49583;45.590;-122.498;2024-02-16T02:53:50;101514.63;;;3.32;84.78
50632;BME280;49583;45.590;-122.498;2024-02-16T02:56:12;101509.64;;;3.33;84.89
50632;BME280;49583;45.590;-122.498;2024-02-16T02:58:28;101498.11;;;3.28;84.69
50632;BME280;49583;45.590;-122.498;2024-02-16T03:00:41;101504.41;;;3.31;84.81
50632;BME280;49583;45.590;-122.498;2024-02-16T03:02:54;101510.10;;;3.30;84.72
50632;BME280;49583;45.590;-122.498;2024-02-16T03:05:08;101514.40;;;3.27;84.86
50632;BME280;49583;45.590;-122.498;2024-02-16T03:07:21;101519.30;;;3.29;84.92
50632;BME280;49583;45.590;-122.498;2024-02-16T03:09:34;101519.98;;;3.31;84.90
50632;BME280;49583;45.590;-122.498;2024-02-16T03:11:56;101517.85;;;3.33;84.84
50632;BME280;49583;45.590;-122.498;2024-02-16T03:14:19;101516.36;;;3.34;84.96
50632;BME280;49583;45.590;-122.498;2024-02-16T03:16:32;101515.45;;;3.34;84.94
50632;BME280;49583;45.590;-122.498;2024-02-16T03:18:45;101518.25;;;3.35;84.80
50632;BME280;49583;45.590;-122.498;2024-02-16T03:20:58;101514.39;;;3.38;84.69
50632;BME280;49583;45.590;-122.498;2024-02-16T03:23:12;101514.50;;;3.41;84.75
50632;BME280;49583;45.590;-122.498;2024-02-16T03:25:34;101519.34;;;3.44;84.69
50632;BME280;49583;45.590;-122.498;2024-02-16T03:27:47;101527.42;;;3.47;84.75
50632;BME280;49583;45.590;-122.498;2024-02-16T03:30:11;101531.65;;;3.51;84.74
50632;BME280;49583;45.590;-122.498;2024-02-16T03:32:24;101528.36;;;3.54;84.65
50632;BME280;49583;45.590;-122.498;2024-02-16T03:34:48;101524.02;;;3.57;84.76
50632;BME280;49583;45.590;-122.498;2024-02-16T03:37:05;101520.48;;;3.60;84.68
50632;BME280;49583;45.590;-122.498;2024-02-16T03:39:38;101520.79;;;3.61;84.46
50632;BME280;49583;45.590;-122.498;2024-02-16T03:41:51;101514.48;;;3.60;84.41
50632;BME280;49583;45.590;-122.498;2024-02-16T03:44:04;101516.05;;;3.63;84.25
50632;BME280;49583;45.590;-122.498;2024-02-16T03:46:28;101523.33;;;3.65;84.30
50632;BME280;49583;45.590;-122.498;2024-02-16T03:49:01;101528.92;;;3.68;84.16
50632;BME280;49583;45.590;-122.498;2024-02-16T03:51:18;101533.73;;;3.69;84.10
50632;BME280;49583;45.590;-122.498;2024-02-16T03:53:51;101526.91;;;3.69;83.76
50632;BME280;49583;45.590;-122.498;2024-02-16T03:56:08;101532.44;;;3.69;83.78
50632;BME280;49583;45.590;-122.498;2024-02-16T03:58:26;101533.23;;;3.69;83.73
50632;BME280;49583;45.590;-122.498;2024-02-16T04:00:39;101530.47;;;3.70;83.58
50632;BME280;49583;45.590;-122.498;2024-02-16T04:02:52;101533.18;;;3.70;83.59
50632;BME280;49583;45.590;-122.498;2024-02-16T04:05:06;101534.20;;;3.70;83.48
50632;BME280;49583;45.590;-122.498;2024-02-16T04:07:23;101538.55;;;3.70;83.40
50632;BME280;49583;45.590;-122.498;2024-02-16T04:09:56;101549.91;;;3.71;83.51
50632;BME280;49583;45.590;-122.498;2024-02-16T04:12:15;101555.35;;;3.72;83.68
50632;BME280;49583;45.590;-122.498;2024-02-16T04:14:28;101556.31;;;3.72;83.48
50632;BME280;49583;45.590;-122.498;2024-02-16T04:16:52;101565.62;;;3.74;83.61
50632;BME280;49583;45.590;-122.498;2024-02-16T04:19:08;101569.67;;;3.75;83.47
50632;BME280;49583;45.590;-122.498;2024-02-16T04:21:30;101576.39;;;3.75;83.28
50632;BME280;49583;45.590;-122.498;2024-02-16T04:23:44;101581.27;;;3.75;83.07
50632;BME280;49583;45.590;-122.498;2024-02-16T04:25:57;101583.42;;;3.75;83.47
50632;BME280;49583;45.590;-122.498;2024-02-16T04:28:10;101588.03;;;3.76;83.17
50632;BME280;49583;45.590;-122.498;2024-02-16T04:30:24;101591.39;;;3.76;82.79
50632;BME280;49583;45.590;-122.498;2024-02-16T04:32:57;101593.11;;;3.76;82.72
50632;BME280;49583;45.590;-122.498;2024-02-16T04:35:11;101599.29;;;3.77;82.81
50632;BME280;49583;45.590;-122.498;2024-02-16T04:37:42;101595.54;;;3.78;82.50
50632;BME280;49583;45.590;-122.498;2024-02-16T04:39:55;101599.09;;;3.76;82.37
50632;BME280;49583;45.590;-122.498;2024-02-16T04:42:09;101602.00;;;3.76;82.32
50632;BME280;49583;45.590;-122.498;2024-02-16T04:44:22;101607.74;;;3.76;82.32
50632;BME280;49583;45.590;-122.498;2024-02-16T04:46:42;101615.06;;;3.77;82.47
50632;BME280;49583;45.590;-122.498;2024-02-16T04:48:55;101614.30;;;3.76;82.54
50632;BME280;49583;45.590;-122.498;2024-02-16T04:51:09;101623.40;;;3.77;82.54
50632;BME280;49583;45.590;-122.498;2024-02-16T04:53:22;101626.66;;;3.76;82.39
50632;BME280;49583;45.590;-122.498;2024-02-16T04:55:45;101636.08;;;3.77;82.08
50632;BME280;49583;45.590;-122.498;2024-02-16T04:58:09;101635.15;;;3.78;82.25
50632;BME280;49583;45.590;-122.498;2024-02-16T05:00:33;101637.42;;;3.78;82.16
50632;BME280;49583;45.590;-122.498;2024-02-16T05:02:55;101635.04;;;3.78;82.24
50632;BME280;49583;45.590;-122.498;2024-02-16T05:05:19;101632.23;;;3.77;81.94
50632;BME280;49583;45.590;-122.498;2024-02-16T05:07:32;101634.57;;;3.76;81.47
50632;BME280;49583;45.590;-122.498;2024-02-16T05:09:46;101636.90;;;3.76;81.60
50632;BME280;49583;45.590;-122.498;2024-02-16T05:12:03;101641.58;;;3.74;81.46
50632;BME280;49583;45.590;-122.498;2024-02-16T05:14:22;101645.05;;;3.73;81.08
50632;BME280;49583;45.590;-122.498;2024-02-16T05:16:42;101650.73;;;3.74;81.59
50632;BME280;49583;45.590;-122.498;2024-02-16T05:18:58;101656.25;;;3.75;81.45
50632;BME280;49583;45.590;-122.498;2024-02-16T05:21:22;101652.02;;;3.75;81.56
50632;BME280;49583;45.590;-122.498;2024-02-16T05:23:38;101648.55;;;3.76;81.15
50632;BME280;49583;45.590;-122.498;2024-02-16T05:25:54;101649.27;;;3.75;80.87
50632;BME280;49583;45.590;-122.498;2024-02-16T05:28:08;101654.84;;;3.75;80.82
50632;BME280;49583;45.590;-122.498;2024-02-16T05:30:23;101669.20;;;3.74;80.49
50632;BME280;49583;45.590;-122.498;2024-02-16T05:32:36;101668.06;;;3.75;80.41
50632;BME280;49583;45.590;-122.498;2024-02-16T05:34:59;101669.52;;;3.75;80.36
50632;BME280;49583;45.590;-122.498;2024-02-16T05:37:24;101668.92;;;3.75;80.56
50632;BME280;49583;45.590;-122.498;2024-02-16T05:39:47;101670.11;;;3.76;79.60
50632;BME280;49583;45.590;-122.498;2024-02-16T05:42:18;101675.52;;;3.77;79.59
50632;BME280;49583;45.590;-122.498;2024-02-16T05:44:35;101682.29;;;3.78;79.44
50632;BME280;49583;45.590;-122.498;2024-02-16T05:46:51;101689.49;;;3.79;78.77
50632;BME280;49583;45.590;-122.498;2024-02-16T05:49:04;101693.40;;;3.80;78.83
50632;BME280;49583;45.590;-122.498;2024-02-16T05:51:39;101692.54;;;3.81;78.46
50632;BME280;49583;45.590;-122.498;2024-02-16T05:54:02;101696.05;;;3.81;78.86
50632;BME280;49583;45.590;-122.498;2024-02-16T05:56:18;101697.23;;;3.82;78.59
50632;BME280;49583;45.590;-122.498;2024-02-16T05:58:36;101693.39;;;3.82;78.65
50632;BME280;49583;45.590;-122.498;2024-02-16T06:00:50;101691.55;;;3.82;78.25
50632;BME280;49583;45.590;-122.498;2024-02-16T06:03:06;101679.04;;;3.81;78.00
50632;BME280;49583;45.590;-122.498;2024-02-16T06:05:19;101681.52;;;3.83;78.01
50632;BME280;49583;45.590;-122.498;2024-02-16T06:07:37;101680.60;;;3.82;78.06
50632;BME280;49583;45.590;-122.498;2024-02-16T06:10:14;101688.67;;;3.81;77.89
50632;BME280;49583;45.590;-122.498;2024-02-16T06:12:26;101693.73;;;3.80;77.58
50632;BME280;49583;45.590;-122.498;2024-02-16T06:14:40;101699.70;;;3.79;77.11
50632;BME280;49583;45.590;-122.498;2024-02-16T06:16:56;101700.20;;;3.79;76.82
50632;BME280;49583;45.590;-122.498;2024-02-16T06:19:08;101705.67;;;3.79;77.05
50632;BME280;49583;45.590;-122.498;2024-02-16T06:21:21;101709.50;;;3.80;77.09
50632;BME280;49583;45.590;-122.498;2024-02-16T06:23:34;101716.60;;;3.79;76.74
50632;BME280;49583;45.590;-122.498;2024-02-16T06:25:47;101715.02;;;3.80;76.65
50632;BME280;49583;45.590;-122.498;2024-02-16T06:28:01;101721.45;;;3.81;76.51
50632;BME280;49583;45.590;-122.498;2024-02-16T06:30:18;101725.83;;;3.83;76.62
50632;BME280;49583;45.590;-122.498;2024-02-16T06:32:35;101727.40;;;3.84;76.55
50632;BME280;49583;45.590;-122.498;2024-02-16T06:34:48;101734.10;;;3.86;74.93
50632;BME280;49583;45.590;-122.498;2024-02-16T06:37:10;101732.70;;;3.88;75.20
50632;BME280;49583;45.590;-122.498;2024-02-16T06:39:23;101733.19;;;3.89;75.07
50632;BME280;49583;45.590;-122.498;2024-02-16T06:41:37;101733.66;;;3.91;75.47
50632;BME280;49583;45.590;-122.498;2024-02-16T06:44:01;101734.20;;;3.93;75.19
50632;BME280;49583;45.590;-122.498;2024-02-16T06:46:14;101744.98;;;3.93;74.83
50632;BME280;49583;45.590;-122.498;2024-02-16T06:48:27;101742.38;;;3.95;75.04
50632;BME280;49583;45.590;-122.498;2024-02-16T06:50:41;101744.96;;;3.97;74.52
50632;BME280;49583;45.590;-122.498;2024-02-16T06:53:15;101738.19;;;3.98;73.69
50632;BME280;49583;45.590;-122.498;2024-02-16T06:55:47;101735.85;;;3.98;73.68
50632;BME280;49583;45.590;-122.498;2024-02-16T06:58:12;101733.78;;;3.99;73.36
50632;BME280;49583;45.590;-122.498;2024-02-16T07:00:35;101729.72;;;3.99;73.26
50632;BME280;49583;45.590;-122.498;2024-02-16T07:03:08;101733.08;;;4.00;72.98
50632;BME280;49583;45.590;-122.498;2024-02-16T07:05:25;101732.54;;;3.99;73.21
50632;BME280;49583;45.590;-122.498;2024-02-16T07:07:52;101741.31;;;4.00;72.80
50632;BME280;49583;45.590;-122.498;2024-02-16T07:10:25;101744.83;;;4.00;72.47
50632;BME280;49583;45.590;-122.498;2024-02-16T07:12:42;101747.15;;;4.01;72.53
50632;BME280;49583;45.590;-122.498;2024-02-16T07:14:59;101741.35;;;4.02;72.35
50632;BME280;49583;45.590;-122.498;2024-02-16T07:17:23;101743.95;;;4.01;71.75
50632;BME280;49583;45.590;-122.498;2024-02-16T07:19:37;101739.67;;;4.01;72.26
50632;BME280;49583;45.590;-122.498;2024-02-16T07:22:10;101736.31;;;4.01;71.87
50632;BME280;49583;45.590;-122.498;2024-02-16T07:24:43;101736.73;;;4.02;71.54
50632;BME280;49583;45.590;-122.498;2024-02-16T07:26:56;101747.86;;;4.02;71.72
50632;BME280;49583;45.590;-122.498;2024-02-16T07:29:21;101761.94;;;3.98;71.45
50632;BME280;49583;45.590;-122.498;2024-02-16T07:31:37;101782.60;;;4.01;71.47
50632;BME280;49583;45.590;-122.498;2024-02-16T07:34:10;101790.55;;;4.02;71.77
50632;BME280;49583;45.590;-122.498;2024-02-16T07:36:27;101798.49;;;4.03;71.89
50632;BME280;49583;45.590;-122.498;2024-02-16T07:38:40;101798.81;;;4.04;72.20
50632;BME280;49583;45.590;-122.498;2024-02-16T07:40:57;101786.83;;;4.05;71.62
50632;BME280;49583;45.590;-122.498;2024-02-16T07:43:22;101776.33;;;4.04;71.79
50632;BME280;49583;45.590;-122.498;2024-02-16T07:45:46;101772.48;;;4.03;71.81
50632;BME280;49583;45.590;-122.498;2024-02-16T07:48:11;101784.38;;;4.02;71.39
50632;BME280;49583;45.590;-122.498;2024-02-16T07:50:45;101790.02;;;4.02;71.68
50632;BME280;49583;45.590;-122.498;2024-02-16T07:52:58;101796.74;;;4.02;71.65
50632;BME280;49583;45.590;-122.498;2024-02-16T07:55:14;101783.51;;;4.02;71.22
50632;BME280;49583;45.590;-122.498;2024-02-16T07:57:28;101785.67;;;4.02;71.45
50632;BME280;49583;45.590;-122.498;2024-02-16T07:59:45;101787.64;;;4.01;71.59
50632;BME280;49583;45.590;-122.498;2024-02-16T08:01:58;101790.63;;;4.01;70.86
50632;BME280;49583;45.590;-122.498;2024-02-16T08:04:23;101784.67;;;3.99;70.58
50632;BME280;49583;45.590;-122.498;2024-02-16T08:06:36;101776.56;;;3.97;70.97
50632;BME280;49583;45.590;-122.498;2024-02-16T08:08:58;101772.30;;;3.96;71.02
50632;BME280;49583;45.590;-122.498;2024-02-16T08:11:11;101768.59;;;3.94;71.07
50632;BME280;49583;45.590;-122.498;2024-02-16T08:13:27;101770.72;;;3.93;70.84
50632;BME280;49583;45.590;-122.498;2024-02-16T08:15:40;101783.35;;;3.91;70.74
50632;BME280;49583;45.590;-122.498;2024-02-16T08:17:53;101791.72;;;3.88;70.76
50632;BME280;49583;45.590;-122.498;2024-02-16T08:20:16;101805.79;;;3.86;71.27
50632;BME280;49583;45.590;-122.498;2024-02-16T08:22:29;101803.59;;;3.84;71.43
50632;BME280;49583;45.590;-122.498;2024-02-16T08:24:45;101801.28;;;3.81;71.01
50632;BME280;49583;45.590;-122.498;2024-02-16T08:27:00;101794.45;;;3.80;71.35
50632;BME280;49583;45.590;-122.498;2024-02-16T08:29:23;101806.80;;;3.78;71.50
50632;BME280;49583;45.590;-122.498;2024-02-16T08:31:35;101811.00;;;3.75;71.60
50632;BME280;49583;45.590;-122.498;2024-02-16T08:33:48;101822.64;;;3.76;71.59
50632;BME280;49583;45.590;-122.498;2024-02-16T08:36:06;101821.99;;;3.74;71.45
50632;BME280;49583;45.590;-122.498;2024-02-16T08:38:23;101825.98;;;3.72;71.85
50632;BME280;49583;45.590;-122.498;2024-02-16T08:40:36;101827.08;;;3.70;71.59
50632;BME280;49583;45.590;-122.498;2024-02-16T08:42:49;101827.05;;;3.68;71.85
50632;BME280;49583;45.590;-122.498;2024-02-16T08:45:06;101825.70;;;3.65;72.04
50632;BME280;49583;45.590;-122.498;2024-02-16T08:47:28;101837.13;;;3.62;71.91
50632;BME280;49583;45.590;-122.498;2024-02-16T08:49:52;101834.32;;;3.60;72.23
50632;BME280;49583;45.590;-122.498;2024-02-16T08:52:05;101840.34;;;3.59;72.23
50632;BME280;49583;45.590;-122.498;2024-02-16T08:54:23;101840.83;;;3.58;72.08
50632;BME280;49583;45.590;-122.498;2024-02-16T08:56:36;101847.65;;;3.58;72.16
50632;BME280;49583;45.590;-122.498;2024-02-16T08:58:50;101847.38;;;3.54;72.06
50632;BME280;49583;45.590;-122.498;2024-02-16T09:01:02;101852.95;;;3.56;71.97
50632;BME280;49583;45.590;-122.498;2024-02-16T09:03:27;101850.89;;;3.55;72.02
50632;BME280;49583;45.590;-122.498;2024-02-16T09:05:44;101854.75;;;3.53;72.14
50632;BME280;49583;45.590;-122.498;2024-02-16T09:07:57;101854.80;;;3.52;72.23
50632;BME280;49583;45.590;-122.498;2024-02-16T09:10:21;101862.98;;;3.50;72.22
50632;BME280;49583;45.590;-122.498;2024-02-16T09:12:54;101868.01;;;3.47;72.53
50632;BME280;49583;45.590;-122.498;2024-02-16T09:15:16;101865.54;;;3.45;72.27
50632;BME280;49583;45.590;-122.498;2024-02-16T09:17:32;101866.35;;;3.43;72.59
50632;BME280;49583;45.590;-122.498;2024-02-16T09:19:45;101864.09;;;3.42;72.49
50632;BME280;49583;45.590;-122.498;2024-02-16T09:21:59;101865.29;;;3.40;72.80
50632;BME280;49583;45.590;-122.498;2024-02-16T09:24:14;101868.19;;;3.39;72.95
50632;BME280;49583;45.590;-122.498;2024-02-16T09:26:28;101877.07;;;3.37;72.87
50632;BME280;49583;45.590;-122.498;2024-02-16T09:28:44;101867.11;;;3.36;72.81
50632;BME280;49583;45.590;-122.498;2024-02-16T09:30:57;101869.94;;;3.35;72.62
50632;BME280;49583;45.590;-122.498;2024-02-16T09:33:21;101880.00;;;3.35;72.59
50632;BME280;49583;45.590;-122.498;2024-02-16T09:35:34;101877.72;;;3.36;72.67
50632;BME280;49583;45.590;-122.498;2024-02-16T09:37:47;101886.88;;;3.36;72.81
50632;BME280;49583;45.590;-122.498;2024-02-16T09:40:14;101887.30;;;3.36;72.47
50632;BME280;49583;45.590;-122.498;2024-02-16T09:42:34;101883.73;;;3.35;72.44
50632;BME280;49583;45.590;-122.498;2024-02-16T09:44:50;101881.03;;;3.34;72.42
50632;BME280;49583;45.590;-122.498;2024-02-16T09:47:04;101879.85;;;3.33;72.34
50632;BME280;49583;45.590;-122.498;2024-02-16T09:49:18;101882.36;;;3.32;72.53
50632;BME280;49583;45.590;-122.498;2024-02-16T09:51:46;101887.08;;;3.31;72.23
50632;BME280;49583;45.590;-122.498;2024-02-16T09:54:00;101883.52;;;3.29;72.35
50632;BME280;49583;45.590;-122.498;2024-02-16T09:56:13;101889.80;;;3.30;72.16
50632;BME280;49583;45.590;-122.498;2024-02-16T09:58:26;101881.23;;;3.29;72.19
50632;BME280;49583;45.590;-122.498;2024-02-16T10:00:39;101889.30;;;3.27;72.18
50632;BME280;49583;45.590;-122.498;2024-02-16T10:03:01;101886.66;;;3.26;72.20
50632;BME280;49583;45.590;-122.498;2024-02-16T10:05:19;101905.20;;;3.25;72.37
50632;BME280;49583;45.590;-122.498;2024-02-16T10:07:35;101909.65;;;3.24;72.45
50632;BME280;49583;45.590;-122.498;2024-02-16T10:09:51;101924.16;;;3.24;72.69
50632;BME280;49583;45.590;-122.498;2024-02-16T10:12:09;101918.05;;;3.22;72.57
50632;BME280;49583;45.590;-122.498;2024-02-16T10:14:22;101930.56;;;3.19;72.47
50632;BME280;49583;45.590;-122.498;2024-02-16T10:16:35;101934.41;;;3.17;72.67
50632;BME280;49583;45.590;-122.498;2024-02-16T10:18:51;101936.16;;;3.17;72.85
50632;BME280;49583;45.590;-122.498;2024-02-16T10:21:05;101940.88;;;3.14;73.13
50632;BME280;49583;45.590;-122.498;2024-02-16T10:23:29;101928.54;;;3.12;73.31
50632;BME280;49583;45.590;-122.498;2024-02-16T10:25:48;101912.77;;;3.06;73.76
50632;BME280;49583;45.590;-122.498;2024-02-16T10:28:12;101911.13;;;3.00;74.06
50632;BME280;49583;45.590;-122.498;2024-02-16T10:30:26;101918.93;;;2.95;74.27
50632;BME280;49583;45.590;-122.498;2024-02-16T10:32:41;101923.56;;;2.90;74.30
50632;BME280;49583;45.590;-122.498;2024-02-16T10:34:55;101942.67;;;2.86;74.44
50632;BME280;49583;45.590;-122.498;2024-02-16T10:37:11;101946.81;;;2.80;74.56
50632;BME280;49583;45.590;-122.498;2024-02-16T10:39:25;101962.68;;;2.77;74.77
50632;BME280;49583;45.590;-122.498;2024-02-16T10:41:43;101967.72;;;2.72;74.96
50632;BME280;49583;45.590;-122.498;2024-02-16T10:44:00;101978.98;;;2.69;75.19
50632;BME280;49583;45.590;-122.498;2024-02-16T10:46:17;101993.38;;;2.66;75.34
50632;BME280;49583;45.590;-122.498;2024-02-16T10:48:40;101989.36;;;2.65;75.56
50632;BME280;49583;45.590;-122.498;2024-02-16T10:51:04;101990.19;;;2.63;75.81
50632;BME280;49583;45.590;-122.498;2024-02-16T10:53:25;101990.69;;;2.60;76.70
50632;BME280;49583;45.590;-122.498;2024-02-16T10:55:39;101990.58;;;2.59;76.47
50632;BME280;49583;45.590;-122.498;2024-02-16T10:58:06;101989.05;;;2.57;76.88
50632;BME280;49583;45.590;-122.498;2024-02-16T11:00:22;101992.90;;;2.56;76.85
50632;BME280;49583;45.590;-122.498;2024-02-16T11:02:43;101982.00;;;2.54;77.18
50632;BME280;49583;45.590;-122.498;2024-02-16T11:05:12;101971.13;;;2.52;77.43
50632;BME280;49583;45.590;-122.498;2024-02-16T11:07:28;101949.23;;;2.50;77.63
50632;BME280;49583;45.590;-122.498;2024-02-16T11:09:53;101926.54;;;2.46;78.00
50632;BME280;49583;45.590;-122.498;2024-02-16T11:12:11;101908.69;;;2.43;77.98
50632;BME280;49583;45.590;-122.498;2024-02-16T11:14:47;101923.73;;;2.39;78.43
50632;BME280;49583;45.590;-122.498;2024-02-16T11:17:09;101935.58;;;2.36;78.55
50632;BME280;49583;45.590;-122.498;2024-02-16T11:19:34;101945.31;;;2.33;78.73
50632;BME280;49583;45.590;-122.498;2024-02-16T11:22:07;101954.85;;;2.30;78.92
50632;BME280;49583;45.590;-122.498;2024-02-16T11:24:22;101951.38;;;2.28;79.10
50632;BME280;49583;45.590;-122.498;2024-02-16T11:26:53;101959.80;;;2.25;79.42
50632;BME280;49583;45.590;-122.498;2024-02-16T11:29:11;101963.17;;;2.23;79.20
50632;BME280;49583;45.590;-122.498;2024-02-16T11:31:45;101963.39;;;2.22;79.34
50632;BME280;49583;45.590;-122.498;2024-02-16T11:33:58;101965.71;;;2.21;79.60
50632;BME280;49583;45.590;-122.498;2024-02-16T11:36:15;101970.84;;;2.20;79.68
50632;BME280;49583;45.590;-122.498;2024-02-16T11:38:30;101979.65;;;2.20;79.91
50632;BME280;49583;45.590;-122.498;2024-02-16T11:40:55;101976.89;;;2.19;79.86
50632;BME280;49583;45.590;-122.498;2024-02-16T11:43:08;101987.05;;;2.19;79.87
50632;BME280;49583;45.590;-122.498;2024-02-16T11:48:10;101987.43;;;2.18;79.91